sensor_id;sensor_type;location;lat;lon;timestamp;P1;durP1;ratioP1;P2;durP2;ratioP2
27857;SDS011;16852;51.446;6.528;2023-10-09T00:01:23;13.82;;;7.47;;
27857;SDS011;16852;51.446;6.528;2023-10-09T00:03:24;11.93;;;7.47;;
27857;SDS011;16852;51.446;6.528;2023-10-09T00:05:27;13.68;;;8.15;;
27857;SDS011;16852;51.446;6.528;2023-10-09T00:07:40;15.35;;;7.93;;
27857;SDS011;16852;51.446;6.528;2023-10-09T00:09:40;14.93;;;8.88;;
27857;SDS011;16852;51.446;6.528;2023-10-09T00:11:47;15.15;;;8.77;;
27857;SDS011;16852;51.446;6.528;2023-10-09T00:13:48;12.68;;;7.85;;
27857;SDS011;16852;51.446;6.528;2023-10-09T00:15:49;12.68;;;8.05;;
27857;SDS011;16852;51.446;6.528;2023-10-09T00:17:53;14.38;;;8.18;;
27857;SDS011;16852;51.446;6.528;2023-10-09T00:19:56;14.93;;;8.65;;
27857;SDS011;16852;51.446;6.528;2023-10-09T00:21:59;14.02;;;8.48;;
27857;SDS011;16852;51.446;6.528;2023-10-09T00:24:25;13.38;;;7.93;;
27857;SDS011;16852;51.446;6.528;2023-10-09T00:26:26;15.30;;;8.02;;
27857;SDS011;16852;51.446;6.528;2023-10-09T00:28:29;13.25;;;8.00;;
27857;SDS011;16852;51.446;6.528;2023-10-09T00:30:29;14.95;;;8.30;;
27857;SDS011;16852;51.446;6.528;2023-10-09T00:32:30;13.48;;;7.90;;
27857;SDS011;16852;51.446;6.528;2023-10-09T00:34:33;15.68;;;9.10;;
27857;SDS011;16852;51.446;6.528;2023-10-09T00:36:39;15.55;;;8.88;;
27857;SDS011;16852;51.446;6.528;2023-10-09T00:38:50;13.40;;;8.55;;
27857;SDS011;16852;51.446;6.528;2023-10-09T00:40:52;15.77;;;8.02;;
27857;SDS011;16852;51.446;6.528;2023-10-09T00:43:11;14.18;;;8.18;;
27857;SDS011;16852;51.446;6.528;2023-10-09T00:47:27;12.48;;;7.30;;
27857;SDS011;16852;51.446;6.528;2023-10-09T00:49:34;11.43;;;7.35;;
27857;SDS011;16852;51.446;6.528;2023-10-09T00:51:34;13.57;;;8.18;;
27857;SDS011;16852;51.446;6.528;2023-10-09T00:53:39;13.00;;;7.68;;
27857;SDS011;16852;51.446;6.528;2023-10-09T00:55:39;13.93;;;8.48;;
27857;SDS011;16852;51.446;6.528;2023-10-09T00:57:44;16.65;;;8.43;;
27857;SDS011;16852;51.446;6.528;2023-10-09T00:59:59;16.60;;;9.57;;
27857;SDS011;16852;51.446;6.528;2023-10-09T01:02:01;22.05;;;10.02;;
27857;SDS011;16852;51.446;6.528;2023-10-09T01:04:05;14.80;;;8.77;;
27857;SDS011;16852;51.446;6.528;2023-10-09T01:06:17;14.10;;;9.05;;
27857;SDS011;16852;51.446;6.528;2023-10-09T01:08:21;16.17;;;8.73;;
27857;SDS011;16852;51.446;6.528;2023-10-09T01:10:26;14.68;;;8.43;;
27857;SDS011;16852;51.446;6.528;2023-10-09T01:12:34;15.48;;;8.30;;
27857;SDS011;16852;51.446;6.528;2023-10-09T01:14:45;14.75;;;7.93;;
27857;SDS011;16852;51.446;6.528;2023-10-09T01:16:52;12.63;;;7.80;;
27857;SDS011;16852;51.446;6.528;2023-10-09T01:18:55;14.25;;;8.20;;
27857;SDS011;16852;51.446;6.528;2023-10-09T01:20:58;12.05;;;7.57;;
27857;SDS011;16852;51.446;6.528;2023-10-09T01:23:01;14.52;;;6.72;;
27857;SDS011;16852;51.446;6.528;2023-10-09T01:25:02;11.40;;;7.28;;
27857;SDS011;16852;51.446;6.528;2023-10-09T01:27:06;14.38;;;7.35;;
27857;SDS011;16852;51.446;6.528;2023-10-09T01:29:19;12.77;;;7.50;;
27857;SDS011;16852;51.446;6.528;2023-10-09T01:31:21;16.38;;;8.77;;
27857;SDS011;16852;51.446;6.528;2023-10-09T01:33:22;12.70;;;7.68;;
27857;SDS011;16852;51.446;6.528;2023-10-09T01:35:24;14.82;;;8.35;;
27857;SDS011;16852;51.446;6.528;2023-10-09T01:37:26;10.70;;;6.90;;
27857;SDS011;16852;51.446;6.528;2023-10-09T01:39:29;11.85;;;6.72;;
27857;SDS011;16852;51.446;6.528;2023-10-09T01:41:30;13.15;;;7.93;;
27857;SDS011;16852;51.446;6.528;2023-10-09T01:43:34;14.05;;;7.43;;
27857;SDS011;16852;51.446;6.528;2023-10-09T01:45:38;17.88;;;7.70;;
27857;SDS011;16852;51.446;6.528;2023-10-09T01:47:46;12.60;;;7.80;;
27857;SDS011;16852;51.446;6.528;2023-10-09T01:49:56;16.02;;;7.75;;
27857;SDS011;16852;51.446;6.528;2023-10-09T01:51:58;14.20;;;6.95;;
27857;SDS011;16852;51.446;6.528;2023-10-09T01:54:02;11.90;;;6.97;;
27857;SDS011;16852;51.446;6.528;2023-10-09T01:56:09;11.85;;;6.88;;
27857;SDS011;16852;51.446;6.528;2023-10-09T01:58:15;13.40;;;7.13;;
27857;SDS011;16852;51.446;6.528;2023-10-09T02:00:21;13.95;;;7.38;;
27857;SDS011;16852;51.446;6.528;2023-10-09T02:02:29;12.65;;;7.40;;
27857;SDS011;16852;51.446;6.528;2023-10-09T02:04:35;12.57;;;7.22;;
27857;SDS011;16852;51.446;6.528;2023-10-09T02:06:35;12.10;;;6.82;;
27857;SDS011;16852;51.446;6.528;2023-10-09T02:08:37;14.73;;;7.32;;
27857;SDS011;16852;51.446;6.528;2023-10-09T02:10:38;12.35;;;7.35;;
27857;SDS011;16852;51.446;6.528;2023-10-09T02:12:39;9.90;;;6.28;;
27857;SDS011;16852;51.446;6.528;2023-10-09T02:14:40;11.60;;;6.55;;
27857;SDS011;16852;51.446;6.528;2023-10-09T02:16:41;15.07;;;7.68;;
27857;SDS011;16852;51.446;6.528;2023-10-09T02:18:42;15.65;;;8.30;;
27857;SDS011;16852;51.446;6.528;2023-10-09T02:22:59;12.85;;;6.65;;
27857;SDS011;16852;51.446;6.528;2023-10-09T02:25:00;11.40;;;6.68;;
27857;SDS011;16852;51.446;6.528;2023-10-09T02:27:05;11.95;;;6.47;;
27857;SDS011;16852;51.446;6.528;2023-10-09T02:29:06;10.45;;;6.20;;
27857;SDS011;16852;51.446;6.528;2023-10-09T02:31:13;11.18;;;6.55;;
27857;SDS011;16852;51.446;6.528;2023-10-09T02:33:17;10.45;;;6.43;;
27857;SDS011;16852;51.446;6.528;2023-10-09T02:35:33;12.25;;;7.40;;
27857;SDS011;16852;51.446;6.528;2023-10-09T02:37:42;11.93;;;7.65;;
27857;SDS011;16852;51.446;6.528;2023-10-09T02:39:45;13.82;;;7.65;;
27857;SDS011;16852;51.446;6.528;2023-10-09T02:41:54;11.18;;;7.18;;
27857;SDS011;16852;51.446;6.528;2023-10-09T02:44:19;12.85;;;7.00;;
27857;SDS011;16852;51.446;6.528;2023-10-09T02:46:24;11.23;;;6.75;;
27857;SDS011;16852;51.446;6.528;2023-10-09T02:48:31;12.75;;;6.55;;
27857;SDS011;16852;51.446;6.528;2023-10-09T02:50:36;12.13;;;6.60;;
27857;SDS011;16852;51.446;6.528;2023-10-09T02:52:38;12.02;;;6.65;;
27857;SDS011;16852;51.446;6.528;2023-10-09T02:54:42;10.15;;;6.47;;
27857;SDS011;16852;51.446;6.528;2023-10-09T02:56:48;11.02;;;6.70;;
27857;SDS011;16852;51.446;6.528;2023-10-09T02:59:06;11.60;;;6.45;;
27857;SDS011;16852;51.446;6.528;2023-10-09T03:01:10;11.65;;;7.03;;
27857;SDS011;16852;51.446;6.528;2023-10-09T03:03:13;11.00;;;6.75;;
27857;SDS011;16852;51.446;6.528;2023-10-09T03:05:18;11.93;;;6.22;;
27857;SDS011;16852;51.446;6.528;2023-10-09T03:07:20;10.60;;;6.43;;
27857;SDS011;16852;51.446;6.528;2023-10-09T03:09:23;10.90;;;7.07;;
27857;SDS011;16852;51.446;6.528;2023-10-09T03:11:27;13.07;;;6.90;;
27857;SDS011;16852;51.446;6.528;2023-10-09T03:13:28;12.60;;;7.15;;
27857;SDS011;16852;51.446;6.528;2023-10-09T03:15:32;12.93;;;7.03;;
27857;SDS011;16852;51.446;6.528;2023-10-09T03:17:35;11.20;;;6.82;;
27857;SDS011;16852;51.446;6.528;2023-10-09T03:19:36;11.18;;;7.18;;
27857;SDS011;16852;51.446;6.528;2023-10-09T03:21:37;11.23;;;6.75;;
27857;SDS011;16852;51.446;6.528;2023-10-09T03:23:38;9.98;;;6.68;;
27857;SDS011;16852;51.446;6.528;2023-10-09T03:25:38;11.38;;;6.68;;
27857;SDS011;16852;51.446;6.528;2023-10-09T03:27:40;11.65;;;6.95;;
27857;SDS011;16852;51.446;6.528;2023-10-09T03:29:45;12.77;;;7.25;;
27857;SDS011;16852;51.446;6.528;2023-10-09T03:31:53;12.05;;;6.57;;
27857;SDS011;16852;51.446;6.528;2023-10-09T03:33:56;9.52;;;6.22;;
27857;SDS011;16852;51.446;6.528;2023-10-09T03:35:56;10.77;;;6.18;;
27857;SDS011;16852;51.446;6.528;2023-10-09T03:37:57;10.93;;;6.82;;
27857;SDS011;16852;51.446;6.528;2023-10-09T03:40:11;10.55;;;6.45;;
27857;SDS011;16852;51.446;6.528;2023-10-09T03:42:17;12.95;;;7.07;;
27857;SDS011;16852;51.446;6.528;2023-10-09T03:44:22;9.35;;;5.85;;
27857;SDS011;16852;51.446;6.528;2023-10-09T03:46:23;12.05;;;6.97;;
27857;SDS011;16852;51.446;6.528;2023-10-09T03:48:33;11.68;;;6.68;;
27857;SDS011;16852;51.446;6.528;2023-10-09T03:50:37;11.23;;;6.03;;
27857;SDS011;16852;51.446;6.528;2023-10-09T03:52:37;10.13;;;6.05;;
27857;SDS011;16852;51.446;6.528;2023-10-09T03:54:40;13.00;;;6.70;;
27857;SDS011;16852;51.446;6.528;2023-10-09T03:56:44;9.63;;;6.20;;
27857;SDS011;16852;51.446;6.528;2023-10-09T03:58:45;12.73;;;6.47;;
27857;SDS011;16852;51.446;6.528;2023-10-09T04:00:47;11.43;;;6.70;;
27857;SDS011;16852;51.446;6.528;2023-10-09T04:02:49;12.07;;;6.72;;
27857;SDS011;16852;51.446;6.528;2023-10-09T04:04:50;10.75;;;6.50;;
27857;SDS011;16852;51.446;6.528;2023-10-09T04:06:51;11.52;;;6.03;;
27857;SDS011;16852;51.446;6.528;2023-10-09T04:08:51;10.82;;;6.30;;
27857;SDS011;16852;51.446;6.528;2023-10-09T04:10:52;10.48;;;6.40;;
27857;SDS011;16852;51.446;6.528;2023-10-09T04:12:53;11.10;;;6.18;;
27857;SDS011;16852;51.446;6.528;2023-10-09T04:14:53;10.93;;;6.68;;
27857;SDS011;16852;51.446;6.528;2023-10-09T04:17:05;13.18;;;6.18;;
27857;SDS011;16852;51.446;6.528;2023-10-09T04:19:24;13.55;;;7.15;;
27857;SDS011;16852;51.446;6.528;2023-10-09T04:21:25;10.68;;;6.07;;
27857;SDS011;16852;51.446;6.528;2023-10-09T04:23:36;15.55;;;7.07;;
27857;SDS011;16852;51.446;6.528;2023-10-09T04:25:57;12.68;;;6.55;;
27857;SDS011;16852;51.446;6.528;2023-10-09T04:30:09;11.15;;;6.43;;
27857;SDS011;16852;51.446;6.528;2023-10-09T04:32:15;15.52;;;6.80;;
27857;SDS011;16852;51.446;6.528;2023-10-09T04:34:16;11.88;;;7.45;;
27857;SDS011;16852;51.446;6.528;2023-10-09T04:36:23;14.82;;;7.82;;
27857;SDS011;16852;51.446;6.528;2023-10-09T04:38:28;11.48;;;6.88;;
27857;SDS011;16852;51.446;6.528;2023-10-09T04:40:34;11.38;;;7.10;;
27857;SDS011;16852;51.446;6.528;2023-10-09T04:42:41;14.05;;;7.53;;
27857;SDS011;16852;51.446;6.528;2023-10-09T04:44:58;15.30;;;7.50;;
27857;SDS011;16852;51.446;6.528;2023-10-09T04:47:04;12.35;;;6.93;;
27857;SDS011;16852;51.446;6.528;2023-10-09T04:49:11;13.55;;;6.93;;
27857;SDS011;16852;51.446;6.528;2023-10-09T04:51:37;13.80;;;7.38;;
27857;SDS011;16852;51.446;6.528;2023-10-09T04:53:55;11.90;;;7.03;;
27857;SDS011;16852;51.446;6.528;2023-10-09T04:56:16;16.67;;;6.95;;
27857;SDS011;16852;51.446;6.528;2023-10-09T04:58:17;11.43;;;7.30;;
27857;SDS011;16852;51.446;6.528;2023-10-09T05:00:24;12.23;;;6.60;;
27857;SDS011;16852;51.446;6.528;2023-10-09T05:02:27;12.63;;;6.65;;
27857;SDS011;16852;51.446;6.528;2023-10-09T05:04:36;12.02;;;6.68;;
27857;SDS011;16852;51.446;6.528;2023-10-09T05:06:36;14.10;;;7.85;;
27857;SDS011;16852;51.446;6.528;2023-10-09T05:08:55;12.05;;;6.40;;
27857;SDS011;16852;51.446;6.528;2023-10-09T05:10:59;10.57;;;6.05;;
27857;SDS011;16852;51.446;6.528;2023-10-09T05:13:03;12.88;;;6.57;;
27857;SDS011;16852;51.446;6.528;2023-10-09T05:15:06;14.77;;;6.75;;
27857;SDS011;16852;51.446;6.528;2023-10-09T05:17:08;12.20;;;6.97;;
27857;SDS011;16852;51.446;6.528;2023-10-09T05:19:15;10.13;;;5.75;;
27857;SDS011;16852;51.446;6.528;2023-10-09T05:21:35;10.85;;;6.40;;
27857;SDS011;16852;51.446;6.528;2023-10-09T05:23:44;13.35;;;6.93;;
27857;SDS011;16852;51.446;6.528;2023-10-09T05:25:49;10.52;;;6.38;;
27857;SDS011;16852;51.446;6.528;2023-10-09T05:27:58;12.70;;;6.63;;
27857;SDS011;16852;51.446;6.528;2023-10-09T05:30:19;12.25;;;6.13;;
27857;SDS011;16852;51.446;6.528;2023-10-09T05:32:26;12.75;;;6.13;;
27857;SDS011;16852;51.446;6.528;2023-10-09T05:34:35;11.35;;;6.70;;
27857;SDS011;16852;51.446;6.528;2023-10-09T05:36:54;10.27;;;5.88;;
27857;SDS011;16852;51.446;6.528;2023-10-09T05:39:10;12.55;;;6.75;;
27857;SDS011;16852;51.446;6.528;2023-10-09T05:41:37;13.50;;;6.50;;
27857;SDS011;16852;51.446;6.528;2023-10-09T05:43:53;11.18;;;6.90;;
27857;SDS011;16852;51.446;6.528;2023-10-09T05:46:12;12.90;;;7.00;;
27857;SDS011;16852;51.446;6.528;2023-10-09T05:48:15;14.38;;;6.72;;
27857;SDS011;16852;51.446;6.528;2023-10-09T05:50:16;15.02;;;7.38;;
27857;SDS011;16852;51.446;6.528;2023-10-09T05:52:16;12.38;;;6.68;;
27857;SDS011;16852;51.446;6.528;2023-10-09T05:54:35;12.52;;;6.35;;
27857;SDS011;16852;51.446;6.528;2023-10-09T05:56:59;8.73;;;5.60;;
27857;SDS011;16852;51.446;6.528;2023-10-09T05:59:18;9.82;;;6.47;;
27857;SDS011;16852;51.446;6.528;2023-10-09T06:01:45;10.55;;;6.10;;
27857;SDS011;16852;51.446;6.528;2023-10-09T06:04:04;10.13;;;6.10;;
27857;SDS011;16852;51.446;6.528;2023-10-09T06:06:15;9.07;;;5.65;;
27857;SDS011;16852;51.446;6.528;2023-10-09T06:08:32;10.30;;;5.72;;
27857;SDS011;16852;51.446;6.528;2023-10-09T06:10:42;8.15;;;5.10;;
27857;SDS011;16852;51.446;6.528;2023-10-09T06:12:42;10.98;;;6.50;;
27857;SDS011;16852;51.446;6.528;2023-10-09T06:14:43;9.98;;;5.57;;
27857;SDS011;16852;51.446;6.528;2023-10-09T06:16:49;13.02;;;6.65;;
27857;SDS011;16852;51.446;6.528;2023-10-09T06:18:56;12.50;;;6.68;;
27857;SDS011;16852;51.446;6.528;2023-10-09T06:21:12;9.45;;;5.53;;
27857;SDS011;16852;51.446;6.528;2023-10-09T06:23:41;14.38;;;6.50;;
27857;SDS011;16852;51.446;6.528;2023-10-09T06:26:09;9.68;;;5.72;;
27857;SDS011;16852;51.446;6.528;2023-10-09T06:28:23;11.70;;;6.43;;
27857;SDS011;16852;51.446;6.528;2023-10-09T06:30:34;9.05;;;5.43;;
27857;SDS011;16852;51.446;6.528;2023-10-09T06:32:35;11.23;;;6.65;;
27857;SDS011;16852;51.446;6.528;2023-10-09T06:34:37;16.35;;;7.53;;
27857;SDS011;16852;51.446;6.528;2023-10-09T06:36:44;11.55;;;7.10;;
27857;SDS011;16852;51.446;6.528;2023-10-09T06:38:53;15.57;;;7.47;;
27857;SDS011;16852;51.446;6.528;2023-10-09T06:41:13;11.40;;;6.80;;
27857;SDS011;16852;51.446;6.528;2023-10-09T06:43:32;14.52;;;7.80;;
27857;SDS011;16852;51.446;6.528;2023-10-09T06:45:36;12.73;;;7.03;;
27857;SDS011;16852;51.446;6.528;2023-10-09T06:47:46;10.85;;;7.32;;
27857;SDS011;16852;51.446;6.528;2023-10-09T06:52:21;10.05;;;5.85;;
27857;SDS011;16852;51.446;6.528;2023-10-09T06:54:42;12.02;;;6.72;;
27857;SDS011;16852;51.446;6.528;2023-10-09T06:56:50;13.10;;;7.85;;
27857;SDS011;16852;51.446;6.528;2023-10-09T06:58:54;11.50;;;6.85;;
27857;SDS011;16852;51.446;6.528;2023-10-09T07:00:55;9.25;;;6.25;;
27857;SDS011;16852;51.446;6.528;2023-10-09T07:02:58;12.57;;;7.28;;
27857;SDS011;16852;51.446;6.528;2023-10-09T07:05:11;12.48;;;7.22;;
27857;SDS011;16852;51.446;6.528;2023-10-09T07:07:17;13.80;;;7.15;;
27857;SDS011;16852;51.446;6.528;2023-10-09T07:09:20;10.07;;;6.80;;
27857;SDS011;16852;51.446;6.528;2023-10-09T07:11:21;12.57;;;7.25;;
27857;SDS011;16852;51.446;6.528;2023-10-09T07:13:42;13.10;;;7.32;;
27857;SDS011;16852;51.446;6.528;2023-10-09T07:15:48;14.43;;;7.25;;
27857;SDS011;16852;51.446;6.528;2023-10-09T07:18:07;12.60;;;7.25;;
27857;SDS011;16852;51.446;6.528;2023-10-09T07:20:23;15.20;;;7.75;;
27857;SDS011;16852;51.446;6.528;2023-10-09T07:22:39;11.98;;;6.70;;
27857;SDS011;16852;51.446;6.528;2023-10-09T07:25:07;12.15;;;7.13;;
27857;SDS011;16852;51.446;6.528;2023-10-09T07:27:29;14.30;;;7.65;;
27857;SDS011;16852;51.446;6.528;2023-10-09T07:29:49;15.05;;;7.72;;
27857;SDS011;16852;51.446;6.528;2023-10-09T07:31:49;12.88;;;7.75;;
27857;SDS011;16852;51.446;6.528;2023-10-09T07:33:57;12.68;;;7.35;;
27857;SDS011;16852;51.446;6.528;2023-10-09T07:36:00;14.60;;;7.95;;
27857;SDS011;16852;51.446;6.528;2023-10-09T07:38:09;16.77;;;8.20;;
27857;SDS011;16852;51.446;6.528;2023-10-09T07:40:11;11.18;;;6.97;;
27857;SDS011;16852;51.446;6.528;2023-10-09T07:42:14;14.57;;;8.10;;
27857;SDS011;16852;51.446;6.528;2023-10-09T07:44:19;12.13;;;7.10;;
27857;SDS011;16852;51.446;6.528;2023-10-09T07:46:20;13.93;;;8.13;;
27857;SDS011;16852;51.446;6.528;2023-10-09T07:48:33;18.27;;;8.80;;
27857;SDS011;16852;51.446;6.528;2023-10-09T07:50:48;11.70;;;6.97;;
27857;SDS011;16852;51.446;6.528;2023-10-09T07:52:49;13.00;;;8.10;;
27857;SDS011;16852;51.446;6.528;2023-10-09T07:54:49;14.38;;;7.65;;
27857;SDS011;16852;51.446;6.528;2023-10-09T07:56:52;14.77;;;8.05;;
27857;SDS011;16852;51.446;6.528;2023-10-09T07:58:53;15.65;;;7.43;;
27857;SDS011;16852;51.446;6.528;2023-10-09T08:01:00;12.23;;;7.05;;
27857;SDS011;16852;51.446;6.528;2023-10-09T08:03:07;13.77;;;7.57;;
27857;SDS011;16852;51.446;6.528;2023-10-09T08:05:23;12.48;;;6.88;;
27857;SDS011;16852;51.446;6.528;2023-10-09T08:07:33;14.77;;;7.80;;
27857;SDS011;16852;51.446;6.528;2023-10-09T08:09:37;20.58;;;8.18;;
27857;SDS011;16852;51.446;6.528;2023-10-09T08:11:48;14.68;;;7.50;;
27857;SDS011;16852;51.446;6.528;2023-10-09T08:14:14;13.27;;;7.50;;
27857;SDS011;16852;51.446;6.528;2023-10-09T08:16:33;14.63;;;7.28;;
27857;SDS011;16852;51.446;6.528;2023-10-09T08:18:36;13.73;;;7.45;;
27857;SDS011;16852;51.446;6.528;2023-10-09T08:20:44;14.52;;;7.32;;
27857;SDS011;16852;51.446;6.528;2023-10-09T08:22:57;14.45;;;7.47;;
27857;SDS011;16852;51.446;6.528;2023-10-09T08:24:58;17.80;;;9.02;;
27857;SDS011;16852;51.446;6.528;2023-10-09T08:26:59;16.95;;;7.80;;
27857;SDS011;16852;51.446;6.528;2023-10-09T08:29:18;11.32;;;7.30;;
27857;SDS011;16852;51.446;6.528;2023-10-09T08:31:20;16.08;;;8.32;;
27857;SDS011;16852;51.446;6.528;2023-10-09T08:33:48;14.63;;;8.32;;
27857;SDS011;16852;51.446;6.528;2023-10-09T08:36:01;13.75;;;8.27;;
27857;SDS011;16852;51.446;6.528;2023-10-09T08:38:04;13.23;;;8.35;;
27857;SDS011;16852;51.446;6.528;2023-10-09T08:40:08;18.67;;;8.23;;
27857;SDS011;16852;51.446;6.528;2023-10-09T08:42:10;15.20;;;8.57;;
27857;SDS011;16852;51.446;6.528;2023-10-09T08:44:11;15.68;;;8.45;;
27857;SDS011;16852;51.446;6.528;2023-10-09T08:46:15;13.23;;;8.35;;
27857;SDS011;16852;51.446;6.528;2023-10-09T08:48:18;16.67;;;8.30;;
27857;SDS011;16852;51.446;6.528;2023-10-09T08:50:21;15.48;;;8.75;;
27857;SDS011;16852;51.446;6.528;2023-10-09T08:52:23;19.00;;;9.07;;
27857;SDS011;16852;51.446;6.528;2023-10-09T08:54:25;14.27;;;7.38;;
27857;SDS011;16852;51.446;6.528;2023-10-09T08:56:25;14.18;;;8.00;;
27857;SDS011;16852;51.446;6.528;2023-10-09T08:58:26;14.10;;;9.00;;
27857;SDS011;16852;51.446;6.528;2023-10-09T09:00:32;19.08;;;8.63;;
27857;SDS011;16852;51.446;6.528;2023-10-09T09:03:19;15.43;;;9.25;;
27857;SDS011;16852;51.446;6.528;2023-10-09T09:05:25;30.88;;;10.27;;
27857;SDS011;16852;51.446;6.528;2023-10-09T09:07:28;16.90;;;8.63;;
27857;SDS011;16852;51.446;6.528;2023-10-09T09:09:32;14.23;;;8.18;;
27857;SDS011;16852;51.446;6.528;2023-10-09T09:11:36;13.30;;;8.17;;
27857;SDS011;16852;51.446;6.528;2023-10-09T09:14:09;15.57;;;7.55;;
27857;SDS011;16852;51.446;6.528;2023-10-09T09:16:23;16.25;;;8.48;;
27857;SDS011;16852;51.446;6.528;2023-10-09T09:18:29;16.30;;;8.88;;
27857;SDS011;16852;51.446;6.528;2023-10-09T09:20:37;20.05;;;8.07;;
27857;SDS011;16852;51.446;6.528;2023-10-09T09:22:51;14.77;;;8.30;;
27857;SDS011;16852;51.446;6.528;2023-10-09T09:24:59;14.90;;;8.07;;
27857;SDS011;16852;51.446;6.528;2023-10-09T09:27:09;13.18;;;7.22;;
27857;SDS011;16852;51.446;6.528;2023-10-09T09:29:13;15.23;;;7.82;;
27857;SDS011;16852;51.446;6.528;2023-10-09T09:31:17;15.63;;;8.18;;
27857;SDS011;16852;51.446;6.528;2023-10-09T09:33:28;15.80;;;8.73;;
27857;SDS011;16852;51.446;6.528;2023-10-09T09:36:01;13.40;;;7.53;;
27857;SDS011;16852;51.446;6.528;2023-10-09T09:38:03;16.60;;;9.43;;
27857;SDS011;16852;51.446;6.528;2023-10-09T09:42:28;14.30;;;8.43;;
27857;SDS011;16852;51.446;6.528;2023-10-09T09:44:31;19.38;;;8.45;;
27857;SDS011;16852;51.446;6.528;2023-10-09T09:46:34;13.98;;;7.32;;
27857;SDS011;16852;51.446;6.528;2023-10-09T09:48:37;15.73;;;8.63;;
27857;SDS011;16852;51.446;6.528;2023-10-09T09:50:45;13.10;;;7.22;;
27857;SDS011;16852;51.446;6.528;2023-10-09T09:52:46;12.50;;;6.50;;
27857;SDS011;16852;51.446;6.528;2023-10-09T09:54:50;12.70;;;7.38;;
27857;SDS011;16852;51.446;6.528;2023-10-09T09:56:51;22.83;;;8.60;;
27857;SDS011;16852;51.446;6.528;2023-10-09T09:58:54;12.02;;;7.65;;
27857;SDS011;16852;51.446;6.528;2023-10-09T10:01:01;11.73;;;6.78;;
27857;SDS011;16852;51.446;6.528;2023-10-09T10:03:17;12.20;;;7.43;;
27857;SDS011;16852;51.446;6.528;2023-10-09T10:05:27;36.40;;;9.93;;
27857;SDS011;16852;51.446;6.528;2023-10-09T10:07:29;22.65;;;8.68;;
27857;SDS011;16852;51.446;6.528;2023-10-09T10:09:39;29.98;;;9.25;;
27857;SDS011;16852;51.446;6.528;2023-10-09T10:11:45;27.75;;;9.98;;
27857;SDS011;16852;51.446;6.528;2023-10-09T10:16:04;23.58;;;10.52;;
27857;SDS011;16852;51.446;6.528;2023-10-09T10:18:12;20.42;;;9.57;;
27857;SDS011;16852;51.446;6.528;2023-10-09T10:20:19;17.23;;;9.07;;
27857;SDS011;16852;51.446;6.528;2023-10-09T10:22:23;44.45;;;10.70;;
27857;SDS011;16852;51.446;6.528;2023-10-09T10:26:46;23.23;;;8.75;;
27857;SDS011;16852;51.446;6.528;2023-10-09T10:31:31;16.55;;;9.52;;
27857;SDS011;16852;51.446;6.528;2023-10-09T10:35:55;16.52;;;9.80;;
27857;SDS011;16852;51.446;6.528;2023-10-09T10:37:56;17.27;;;9.18;;
27857;SDS011;16852;51.446;6.528;2023-10-09T10:40:08;14.63;;;8.35;;
27857;SDS011;16852;51.446;6.528;2023-10-09T10:42:29;23.63;;;10.15;;
27857;SDS011;16852;51.446;6.528;2023-10-09T10:44:35;16.27;;;8.80;;
27857;SDS011;16852;51.446;6.528;2023-10-09T10:46:41;17.13;;;10.02;;
27857;SDS011;16852;51.446;6.528;2023-10-09T10:50:49;17.55;;;8.57;;
27857;SDS011;16852;51.446;6.528;2023-10-09T10:55:14;19.50;;;9.48;;
27857;SDS011;16852;51.446;6.528;2023-10-09T10:57:30;16.17;;;9.25;;
27857;SDS011;16852;51.446;6.528;2023-10-09T10:59:58;13.38;;;8.18;;
27857;SDS011;16852;51.446;6.528;2023-10-09T11:02:13;13.02;;;7.97;;
27857;SDS011;16852;51.446;6.528;2023-10-09T11:04:23;12.88;;;7.25;;
27857;SDS011;16852;51.446;6.528;2023-10-09T11:06:28;15.18;;;8.60;;
27857;SDS011;16852;51.446;6.528;2023-10-09T11:08:37;16.07;;;8.97;;
27857;SDS011;16852;51.446;6.528;2023-10-09T11:10:37;11.90;;;7.88;;
27857;SDS011;16852;51.446;6.528;2023-10-09T11:12:49;11.95;;;7.20;;
27857;SDS011;16852;51.446;6.528;2023-10-09T11:14:53;32.22;;;10.70;;
27857;SDS011;16852;51.446;6.528;2023-10-09T11:17:06;31.80;;;10.52;;
27857;SDS011;16852;51.446;6.528;2023-10-09T11:19:23;28.98;;;11.50;;
27857;SDS011;16852;51.446;6.528;2023-10-09T11:21:28;26.42;;;9.45;;
27857;SDS011;16852;51.446;6.528;2023-10-09T11:23:31;23.90;;;9.70;;
27857;SDS011;16852;51.446;6.528;2023-10-09T11:25:36;22.85;;;9.60;;
27857;SDS011;16852;51.446;6.528;2023-10-09T11:27:40;23.23;;;10.52;;
27857;SDS011;16852;51.446;6.528;2023-10-09T11:29:51;45.90;;;11.90;;
27857;SDS011;16852;51.446;6.528;2023-10-09T11:31:58;39.65;;;12.68;;
27857;SDS011;16852;51.446;6.528;2023-10-09T11:33:59;32.75;;;12.15;;
27857;SDS011;16852;51.446;6.528;2023-10-09T11:36:01;51.10;;;13.55;;
27857;SDS011;16852;51.446;6.528;2023-10-09T11:38:07;44.03;;;12.75;;
27857;SDS011;16852;51.446;6.528;2023-10-09T11:40:30;38.58;;;11.77;;
27857;SDS011;16852;51.446;6.528;2023-10-09T11:42:51;28.85;;;12.23;;
27857;SDS011;16852;51.446;6.528;2023-10-09T11:44:57;24.23;;;10.32;;
27857;SDS011;16852;51.446;6.528;2023-10-09T11:47:04;40.10;;;10.93;;
27857;SDS011;16852;51.446;6.528;2023-10-09T11:49:17;21.67;;;9.38;;
27857;SDS011;16852;51.446;6.528;2023-10-09T11:51:21;23.02;;;10.32;;
27857;SDS011;16852;51.446;6.528;2023-10-09T11:53:22;37.38;;;11.43;;
27857;SDS011;16852;51.446;6.528;2023-10-09T11:55:23;18.98;;;9.52;;
27857;SDS011;16852;51.446;6.528;2023-10-09T11:57:25;20.20;;;9.95;;
27857;SDS011;16852;51.446;6.528;2023-10-09T11:59:34;14.82;;;8.10;;
27857;SDS011;16852;51.446;6.528;2023-10-09T12:01:37;18.73;;;9.20;;
27857;SDS011;16852;51.446;6.528;2023-10-09T12:03:42;12.93;;;8.07;;
27857;SDS011;16852;51.446;6.528;2023-10-09T12:05:44;14.70;;;9.15;;
27857;SDS011;16852;51.446;6.528;2023-10-09T12:07:45;17.30;;;10.40;;
27857;SDS011;16852;51.446;6.528;2023-10-09T12:09:46;17.30;;;9.60;;
27857;SDS011;16852;51.446;6.528;2023-10-09T12:11:48;17.25;;;8.85;;
27857;SDS011;16852;51.446;6.528;2023-10-09T12:13:53;20.30;;;10.18;;
27857;SDS011;16852;51.446;6.528;2023-10-09T12:15:56;14.73;;;7.90;;
27857;SDS011;16852;51.446;6.528;2023-10-09T12:17:57;15.98;;;9.82;;
27857;SDS011;16852;51.446;6.528;2023-10-09T12:19:58;16.15;;;9.18;;
27857;SDS011;16852;51.446;6.528;2023-10-09T12:21:59;16.35;;;9.60;;
27857;SDS011;16852;51.446;6.528;2023-10-09T12:24:00;17.83;;;10.27;;
27857;SDS011;16852;51.446;6.528;2023-10-09T12:26:04;17.40;;;9.73;;
27857;SDS011;16852;51.446;6.528;2023-10-09T12:28:04;13.77;;;8.27;;
27857;SDS011;16852;51.446;6.528;2023-10-09T12:30:06;19.70;;;9.18;;
27857;SDS011;16852;51.446;6.528;2023-10-09T12:32:07;17.25;;;10.60;;
27857;SDS011;16852;51.446;6.528;2023-10-09T12:34:10;17.75;;;10.07;;
27857;SDS011;16852;51.446;6.528;2023-10-09T12:36:16;17.15;;;9.05;;
27857;SDS011;16852;51.446;6.528;2023-10-09T12:38:19;24.40;;;11.35;;
27857;SDS011;16852;51.446;6.528;2023-10-09T12:40:22;19.15;;;10.02;;
27857;SDS011;16852;51.446;6.528;2023-10-09T12:42:29;22.13;;;10.55;;
27857;SDS011;16852;51.446;6.528;2023-10-09T12:44:33;18.55;;;10.00;;
27857;SDS011;16852;51.446;6.528;2023-10-09T12:46:39;15.30;;;8.95;;
27857;SDS011;16852;51.446;6.528;2023-10-09T12:48:39;15.52;;;8.90;;
27857;SDS011;16852;51.446;6.528;2023-10-09T12:50:46;24.58;;;10.15;;
27857;SDS011;16852;51.446;6.528;2023-10-09T12:52:57;19.88;;;8.57;;
27857;SDS011;16852;51.446;6.528;2023-10-09T12:55:06;14.40;;;8.32;;
27857;SDS011;16852;51.446;6.528;2023-10-09T12:57:10;16.48;;;8.25;;
27857;SDS011;16852;51.446;6.528;2023-10-09T12:59:13;32.08;;;9.30;;